Thunder radar more information blitzortung!


Radar de pluja more information rain snow radar


Visita la nostra xarxa de llocs de meteo:

Template documentation
and downloads

And another site



No particular awareness of the weather is required.    There are no Weather-warnings

Pagina Historial Weather Underground text

Diari Resum Setembre 9, 2017 Unitats:  Mètric    Imperial   Tant
« Previous Dia
SegĂźent Dia »
Diari Setmana Mensual Anual Personalitzada
  Maxima: Minima: Media:
Temperatura: 24.8 °C 12.5 °C 18.2 °C
Punt de rosada: 17.9 °C 8.2 °C 13.7 °C
Humitat: 88 % 57 % 76 %
Wind Speed: 15.6 km/h 0.0 km/h 4.3 km/h
RĂ fegues de vent: 15.6 km/h - -
Vent:- - SSE
Pression baro: 1010.0 hPa 1001.9 hPa -
Precipitacions: 5.3 mm    
Historical Graphs
 
 
Dades de taula per Setembre 9, 2017
Temps Temperatura Punt de rosada Pression baro Vent Wind Speed RĂ fegues de vent Humitat Rainfall Rate (Hourly)
00:03 19.3 °C 11.8 °C 1010.0 hPa SW 2.3 km/h 2.3 km/h 62 % 0.0 mm
00:04 19.3 °C 11.8 °C 1010.0 hPa SW 2.3 km/h 2.3 km/h 62 % 0.0 mm
00:05 18.4 °C 13.4 °C 1006.0 hPa Calm   4.8 km/h 73 % 0.0 mm
00:09 19.3 °C 11.8 °C 1009.0 hPa Calm     62 % 0.0 mm
00:15 18.5 °C 13.6 °C 1006.0 hPa Calm   1.6 km/h 73 % 0.0 mm
00:25 18.5 °C 13.6 °C 1006.0 hPa Calm   4.8 km/h 73 % 0.0 mm
00:35 18.5 °C 13.6 °C 1006.0 hPa NNE 4.8 km/h 4.8 km/h 73 % 0.0 mm
00:45 18.6 °C 13.7 °C 1006.0 hPa North 1.6 km/h 3.2 km/h 73 % 0.0 mm
00:55 18.6 °C 13.7 °C 1006.0 hPa Calm   1.6 km/h 73 % 0.0 mm
01:05 18.6 °C 13.7 °C 1006.0 hPa Calm   4.8 km/h 73 % 0.0 mm
01:15 18.6 °C 13.7 °C 1006.0 hPa Calm   3.2 km/h 73 % 0.0 mm
01:25 18.6 °C 13.7 °C 1006.0 hPa NNE 3.2 km/h 4.8 km/h 73 % 0.0 mm
01:35 18.6 °C 13.9 °C 1006.0 hPa North 1.6 km/h 3.2 km/h 74 % 0.0 mm
01:45 18.6 °C 13.7 °C 1005.0 hPa NNE 3.2 km/h 6.4 km/h 73 % 0.0 mm
01:55 18.6 °C 13.7 °C 1003.9 hPa NNE 1.6 km/h 4.8 km/h 73 % 0.0 mm
02:05 18.5 °C 13.8 °C 1003.9 hPa North 1.6 km/h 3.2 km/h 74 % 0.0 mm
02:15 18.4 °C 13.7 °C 1003.9 hPa NNE 3.2 km/h 3.2 km/h 74 % 0.0 mm
02:25 18.3 °C 13.6 °C 1003.9 hPa NNE 3.2 km/h 6.4 km/h 74 % 0.0 mm
02:35 18.2 °C 13.5 °C 1003.9 hPa NE 3.2 km/h 4.8 km/h 74 % 0.0 mm
02:45 18.2 °C 13.7 °C 1003.9 hPa NE 1.6 km/h 4.8 km/h 75 % 0.0 mm
02:55 18.2 °C 13.5 °C 1003.9 hPa ENE 1.6 km/h 6.4 km/h 74 % 0.0 mm
03:05 18.3 °C 13.6 °C 1003.9 hPa NNE 1.6 km/h 3.2 km/h 74 % 0.0 mm
03:15 18.4 °C 13.9 °C 1003.9 hPa NE 1.6 km/h 4.8 km/h 75 % 0.0 mm
03:25 18.4 °C 13.9 °C 1003.9 hPa NNE 4.8 km/h 4.8 km/h 75 % 0.0 mm
03:35 18.4 °C 13.9 °C 1003.9 hPa North 4.8 km/h 6.4 km/h 75 % 0.0 mm
03:45 18.3 °C 13.6 °C 1002.9 hPa North 8.0 km/h 9.7 km/h 74 % 0.0 mm
03:55 18.3 °C 13.6 °C 1003.9 hPa NNE 8.0 km/h 8.0 km/h 74 % 0.0 mm
04:05 18.5 °C 13.8 °C 1003.9 hPa NNE 4.8 km/h 8.0 km/h 74 % 0.0 mm
04:15 18.5 °C 13.8 °C 1003.9 hPa NNE 4.8 km/h 6.4 km/h 74 % 0.0 mm
04:25 18.7 °C 13.9 °C 1003.9 hPa North 3.2 km/h 4.8 km/h 74 % 0.0 mm
04:35 18.8 °C 13.8 °C 1003.9 hPa North 1.6 km/h 6.4 km/h 73 % 0.0 mm
04:45 18.9 °C 13.9 °C 1003.9 hPa NNE 4.8 km/h 8.0 km/h 73 % 0.0 mm
04:55 19.1 °C 13.9 °C 1003.9 hPa NNE 3.2 km/h 3.2 km/h 72 % 0.0 mm
05:05 19.4 °C 14.2 °C 1003.9 hPa North 1.6 km/h 4.8 km/h 72 % 0.0 mm
05:15 19.8 °C 14.6 °C 1003.9 hPa NNE 1.6 km/h 4.8 km/h 72 % 0.0 mm
05:25 20.4 °C 14.9 °C 1003.9 hPa NE 1.6 km/h 4.8 km/h 71 % 0.0 mm
10:25 20.4 °C 14.9 °C 1003.9 hPa NE 4.7 km/h 4.7 km/h 71 % 0.0 mm
10:30 21.1 °C 15.2 °C 1003.9 hPa ENE 1.9 km/h 1.9 km/h 69 % 0.0 mm
10:35 21.1 °C 15.4 °C 1003.9 hPa NNW 3.7 km/h 3.7 km/h 70 % 0.0 mm
10:40 21.4 °C 15.7 °C 1003.9 hPa NNW 4.7 km/h 4.7 km/h 70 % 0.0 mm
10:45 21.8 °C 15.8 °C 1003.9 hPa ENE 5.6 km/h 5.6 km/h 69 % 0.0 mm
10:50 22.2 °C 15.8 °C 1003.9 hPa North 3.7 km/h 3.7 km/h 67 % 0.0 mm
10:55 22.7 °C 16.5 °C 1003.9 hPa North 2.6 km/h 2.6 km/h 68 % 0.0 mm
11:00 22.7 °C 16.3 °C 1003.9 hPa ENE 9.3 km/h 9.3 km/h 67 % 0.0 mm
11:05 22.6 °C 16.2 °C 1003.9 hPa NNE 3.7 km/h 3.7 km/h 67 % 0.0 mm
11:10 23.0 °C 16.6 °C 1002.9 hPa East 7.4 km/h 7.4 km/h 67 % 0.0 mm
11:15 23.0 °C 16.6 °C 1002.9 hPa NE 7.4 km/h 7.4 km/h 67 % 0.0 mm
11:20 23.4 °C 16.9 °C 1002.9 hPa NE 8.7 km/h 8.7 km/h 67 % 0.0 mm
11:25 23.2 °C 16.7 °C 1002.9 hPa NNE 7.4 km/h 7.4 km/h 67 % 0.0 mm
11:30 23.8 °C 17.3 °C 1002.9 hPa NNE 5.6 km/h 5.6 km/h 67 % 0.0 mm
11:35 23.8 °C 17.6 °C 1002.9 hPa East 5.6 km/h 5.6 km/h 68 % 0.0 mm
11:40 23.8 °C 17.6 °C 1002.9 hPa East 5.8 km/h 5.8 km/h 68 % 0.0 mm
11:45 23.8 °C 17.3 °C 1002.9 hPa NNE 5.6 km/h 5.6 km/h 67 % 0.0 mm
11:50 23.9 °C 17.4 °C 1002.9 hPa NE 3.9 km/h 3.9 km/h 67 % 0.0 mm
11:55 24.0 °C 17.3 °C 1002.9 hPa NNE 5.3 km/h 5.3 km/h 66 % 0.0 mm
12:00 23.9 °C 17.4 °C 1002.9 hPa ENE 3.7 km/h 3.9 km/h 67 % 0.0 mm
12:05 23.9 °C 17.4 °C 1002.9 hPa East 5.8 km/h 5.8 km/h 67 % 0.0 mm
12:10 23.9 °C 17.4 °C 1002.9 hPa ENE 5.6 km/h 5.6 km/h 67 % 0.0 mm
12:15 24.1 °C 17.3 °C 1002.9 hPa NNE 3.7 km/h   66 % 0.0 mm
12:20 24.6 °C 17.8 °C 1002.9 hPa Calm     66 % 0.0 mm
12:25 24.7 °C 17.9 °C 1001.9 hPa West 4.2 km/h 4.2 km/h 66 % 0.0 mm
12:30 24.8 °C 17.8 °C 1001.9 hPa NW 1.9 km/h   65 % 0.0 mm
12:35 24.8 °C 17.8 °C 1001.9 hPa SW 5.6 km/h 5.8 km/h 65 % 0.0 mm
12:40 24.5 °C 17.0 °C 1001.9 hPa WSW 9.3 km/h 9.3 km/h 63 % 0.0 mm
12:45 24.4 °C 16.7 °C 1001.9 hPa South 5.6 km/h 5.6 km/h 62 % 0.0 mm
12:50 24.3 °C 16.3 °C 1001.9 hPa WSW 5.6 km/h 5.6 km/h 61 % 0.0 mm
12:55 24.3 °C 16.3 °C 1001.9 hPa WSW 13.0 km/h 13.0 km/h 61 % 0.0 mm
13:00 24.1 °C 15.8 °C 1001.9 hPa West 10.3 km/h 10.3 km/h 60 % 0.0 mm
13:05 23.9 °C 15.9 °C 1001.9 hPa SW 7.4 km/h 7.4 km/h 61 % 0.0 mm
13:10 23.8 °C 15.8 °C 1001.9 hPa SW 13.0 km/h 13.0 km/h 61 % 0.0 mm
13:15 23.6 °C 15.6 °C 1001.9 hPa West 7.4 km/h 7.4 km/h 61 % 0.0 mm
13:20 23.6 °C 15.4 °C 1001.9 hPa WNW 15.6 km/h 15.6 km/h 60 % 0.0 mm
13:25 23.5 °C 15.3 °C 1001.9 hPa WNW 11.1 km/h 11.1 km/h 60 % 0.0 mm
13:30 23.5 °C 15.3 °C 1001.9 hPa West 9.5 km/h 9.5 km/h 60 % 0.0 mm
13:35 23.5 °C 15.3 °C 1001.9 hPa West 9.3 km/h 9.3 km/h 60 % 0.0 mm
13:40 23.4 °C 15.2 °C 1001.9 hPa West 14.8 km/h 14.8 km/h 60 % 0.0 mm
13:45 23.5 °C 15.3 °C 1001.9 hPa NW 9.3 km/h 9.3 km/h 60 % 0.0 mm
13:50 23.5 °C 15.0 °C 1001.9 hPa SSW 5.6 km/h 5.6 km/h 59 % 0.0 mm
13:55 23.5 °C 15.0 °C 1001.9 hPa WSW 9.3 km/h 9.3 km/h 59 % 0.0 mm
14:00 23.1 °C 14.4 °C 1001.9 hPa West 13.0 km/h 13.0 km/h 58 % 0.0 mm
14:05 22.7 °C 14.0 °C 1001.9 hPa WSW 9.3 km/h 9.3 km/h 58 % 0.0 mm
14:10 22.6 °C 13.9 °C 1002.9 hPa WSW 8.7 km/h 8.7 km/h 58 % 0.0 mm
14:15 22.3 °C 13.4 °C 1002.9 hPa NW 9.3 km/h 9.3 km/h 57 % 0.0 mm
14:20 22.2 °C 13.3 °C 1002.9 hPa South 5.6 km/h 5.6 km/h 57 % 0.0 mm
14:25 22.3 °C 13.4 °C 1002.9 hPa WSW 9.7 km/h 9.7 km/h 57 % 0.0 mm
14:30 22.2 °C 13.3 °C 1002.9 hPa NNW 9.0 km/h 9.0 km/h 57 % 0.0 mm
14:36 21.9 °C 13.3 °C 1002.9 hPa WNW 7.4 km/h 7.4 km/h 58 % 0.0 mm
14:41 21.6 °C 13.0 °C 1003.9 hPa WNW 11.1 km/h 11.1 km/h 58 % 0.0 mm
14:46 21.3 °C 12.9 °C 1003.9 hPa WSW 9.3 km/h 9.3 km/h 59 % 0.0 mm
14:51 20.7 °C 12.9 °C 1003.9 hPa West 9.3 km/h 9.3 km/h 61 % 0.0 mm
14:56 20.4 °C 12.9 °C 1003.9 hPa NW 7.4 km/h 7.4 km/h 62 % 0.0 mm
15:01 20.0 °C 13.0 °C 1003.9 hPa NE 5.6 km/h 5.6 km/h 64 % 0.0 mm
15:06 19.8 °C 13.1 °C 1003.9 hPa SW 7.4 km/h 7.4 km/h 65 % 0.0 mm
15:11 19.4 °C 13.1 °C 1003.9 hPa SSW 3.9 km/h 3.9 km/h 67 % 0.0 mm
15:16 19.2 °C 13.2 °C 1003.9 hPa WNW 5.6 km/h 5.6 km/h 68 % 0.0 mm
15:21 18.9 °C 13.3 °C 1003.9 hPa South 4.2 km/h   70 % 0.0 mm
15:26 18.7 °C 13.6 °C 1003.9 hPa WNW 1.9 km/h 1.9 km/h 72 % 0.0 mm
15:31 18.5 °C 13.6 °C 1003.9 hPa ENE 4.2 km/h 4.2 km/h 73 % 0.0 mm
15:36 18.3 °C 13.8 °C 1003.9 hPa SE 3.7 km/h 3.7 km/h 75 % 0.0 mm
15:41 18.2 °C 13.7 °C 1003.9 hPa ESE 2.3 km/h   75 % 1.0 mm
15:46 18.0 °C 13.5 °C 1003.9 hPa East 3.7 km/h 3.7 km/h 75 % 1.0 mm
15:51 18.1 °C 13.8 °C 1003.9 hPa SW 3.7 km/h 3.7 km/h 76 % 1.0 mm
15:56 18.1 °C 14.0 °C 1002.9 hPa ESE 3.9 km/h 3.9 km/h 77 % 1.0 mm
16:01 18.0 °C 13.9 °C 1002.9 hPa NE 2.6 km/h   77 % 1.0 mm
16:06 17.9 °C 14.0 °C 1003.9 hPa SW 1.9 km/h 1.9 km/h 78 % 2.3 mm
16:11 17.9 °C 14.0 °C 1003.9 hPa SW 1.9 km/h 1.9 km/h 78 % 2.3 mm
16:16 17.8 °C 13.9 °C 1003.9 hPa SW 1.9 km/h   78 % 2.3 mm
16:21 17.7 °C 13.8 °C 1003.9 hPa WSW 3.7 km/h 3.7 km/h 78 % 2.3 mm
16:26 17.5 °C 13.6 °C 1003.9 hPa WSW 3.7 km/h 3.7 km/h 78 % 2.3 mm
16:31 17.7 °C 14.0 °C 1003.9 hPa SW 3.7 km/h 3.7 km/h 79 % 2.3 mm
16:36 17.6 °C 13.9 °C 1003.9 hPa WSW 3.7 km/h 3.7 km/h 79 % 2.0 mm
16:41 17.5 °C 13.8 °C 1003.9 hPa WSW 3.7 km/h 3.7 km/h 79 % 2.0 mm
16:46 17.4 °C 13.7 °C 1003.9 hPa WNW 3.7 km/h 3.7 km/h 79 % 2.0 mm
16:51 17.1 °C 13.4 °C 1003.9 hPa NNW 4.7 km/h 4.7 km/h 79 % 3.3 mm
16:56 17.0 °C 13.3 °C 1003.9 hPa WSW 5.6 km/h 5.6 km/h 79 % 3.3 mm
17:01 16.8 °C 13.1 °C 1003.9 hPa WNW 7.4 km/h 7.4 km/h 79 % 3.3 mm
17:06 16.7 °C 13.2 °C 1003.9 hPa SW 5.6 km/h 5.6 km/h 80 % 2.0 mm
17:11 16.6 °C 13.1 °C 1003.9 hPa West 3.9 km/h 3.9 km/h 80 % 3.0 mm
17:16 16.6 °C 13.3 °C 1003.9 hPa WNW 1.9 km/h   81 % 3.0 mm
17:21 16.7 °C 13.4 °C 1003.9 hPa SW 3.2 km/h 3.2 km/h 81 % 3.0 mm
17:26 16.7 °C 13.8 °C 1003.9 hPa Calm     83 % 3.0 mm
17:31 16.9 °C 14.2 °C 1003.9 hPa SW 1.9 km/h   84 % 3.0 mm
17:36 16.7 °C 13.8 °C 1003.9 hPa West 5.6 km/h 5.6 km/h 83 % 2.3 mm
17:41 16.6 °C 13.5 °C 1003.9 hPa WSW 3.7 km/h 3.7 km/h 82 % 2.3 mm
17:42 16.7 °C 13.6 °C 1003.9 hPa West 3.7 km/h 3.7 km/h 82 % 2.3 mm
17:47 16.8 °C 13.7 °C 1003.9 hPa Calm     82 % 2.3 mm
17:52 16.9 °C 14.0 °C 1003.9 hPa West 1.9 km/h   83 % 1.0 mm
17:57 17.1 °C 14.2 °C 1003.9 hPa NNE 1.9 km/h 1.9 km/h 83 % 1.0 mm
18:02 17.3 °C 14.6 °C 1003.9 hPa Calm     84 % 1.0 mm
18:07 17.2 °C 14.3 °C 1003.9 hPa Calm     83 % 1.0 mm
18:12 17.4 °C 14.5 °C 1003.9 hPa Calm     83 % 0.0 mm
18:17 17.5 °C 14.6 °C 1003.9 hPa SW 3.2 km/h 3.2 km/h 83 % 0.0 mm
18:22 17.5 °C 14.6 °C 1003.9 hPa SW 2.3 km/h 2.3 km/h 83 % 0.0 mm
18:27 17.6 °C 14.7 °C 1003.9 hPa Calm     83 % 0.0 mm
18:32 17.5 °C 14.6 °C 1003.9 hPa Calm     83 % 0.0 mm
18:37 17.4 °C 14.3 °C 1002.9 hPa Calm     82 % 0.0 mm
18:42 17.4 °C 14.5 °C 1002.9 hPa Calm     83 % 0.0 mm
18:47 17.4 °C 14.3 °C 1002.9 hPa SW 2.3 km/h   82 % 0.0 mm
18:48 17.4 °C 14.3 °C 1002.9 hPa SW 2.3 km/h   82 % 0.0 mm
18:53 17.4 °C 14.3 °C 1002.9 hPa SW 1.9 km/h 2.3 km/h 82 % 0.0 mm
18:58 17.4 °C 14.5 °C 1002.9 hPa SW 1.9 km/h   83 % 0.0 mm
19:03 17.4 °C 14.5 °C 1002.9 hPa SW 3.7 km/h 3.7 km/h 83 % 0.0 mm
19:08 17.3 °C 14.6 °C 1002.9 hPa SW 2.3 km/h   84 % 0.0 mm
19:13 17.3 °C 14.6 °C 1002.9 hPa Calm     84 % 0.0 mm
19:18 17.3 °C 14.4 °C 1002.9 hPa SW 3.7 km/h 3.7 km/h 83 % 0.0 mm
19:23 17.1 °C 14.2 °C 1002.9 hPa SW 1.9 km/h   83 % 0.0 mm
19:25 14.6 °C 11.6 °C 1003.9 hPa ENE 1.6 km/h   82 % 0.0 mm
19:28 17.1 °C 14.2 °C 1002.9 hPa SW 1.9 km/h 1.9 km/h 83 % 0.0 mm
19:33 17.0 °C 14.1 °C 1002.9 hPa SW 1.9 km/h   83 % 0.0 mm
19:35 14.6 °C 11.6 °C 1003.9 hPa NE 1.6 km/h 3.2 km/h 82 % 0.0 mm
19:38 16.9 °C 14.2 °C 1002.9 hPa Calm     84 % 0.0 mm
19:43 16.8 °C 14.1 °C 1002.9 hPa Calm     84 % 0.0 mm
19:45 14.5 °C 11.4 °C 1003.9 hPa Calm     82 % 0.0 mm
19:48 16.8 °C 14.1 °C 1002.9 hPa Calm     84 % 0.0 mm
19:53 16.8 °C 14.1 °C 1002.9 hPa ENE 3.7 km/h 3.7 km/h 84 % 0.0 mm
19:55 14.3 °C 11.4 °C 1003.9 hPa NNE 1.6 km/h 3.2 km/h 83 % 0.0 mm
19:58 16.7 °C 14.2 °C 1002.9 hPa ENE 5.6 km/h 5.6 km/h 85 % 0.0 mm
20:03 16.6 °C 13.9 °C 1002.9 hPa ENE 5.6 km/h 5.6 km/h 84 % 0.0 mm
20:05 14.2 °C 11.3 °C 1003.9 hPa Calm     83 % 0.0 mm
20:08 16.6 °C 13.9 °C 1002.9 hPa ENE 1.9 km/h 1.9 km/h 84 % 0.0 mm
20:13 16.6 °C 13.9 °C 1002.9 hPa NE 6.9 km/h 6.9 km/h 84 % 0.0 mm
20:15 14.1 °C 11.3 °C 1003.9 hPa Calm   1.6 km/h 83 % 0.0 mm
20:18 16.6 °C 14.1 °C 1002.9 hPa East 7.4 km/h 7.4 km/h 85 % 0.0 mm
20:23 16.6 °C 14.1 °C 1002.9 hPa NE 5.8 km/h 5.8 km/h 85 % 0.0 mm
20:25 14.1 °C 11.3 °C 1005.0 hPa WNW 1.6 km/h 3.2 km/h 83 % 0.0 mm
20:28 16.6 °C 14.1 °C 1002.9 hPa NNE 5.6 km/h 5.6 km/h 85 % 0.0 mm
20:33 16.5 °C 13.9 °C 1002.9 hPa NNE 7.4 km/h 7.4 km/h 85 % 0.0 mm
20:35 14.0 °C 11.2 °C 1005.0 hPa Calm     83 % 0.0 mm
20:38 16.5 °C 13.9 °C 1002.9 hPa ENE 7.4 km/h 7.4 km/h 85 % 0.0 mm
20:43 16.4 °C 13.9 °C 1002.9 hPa NE 6.1 km/h 6.1 km/h 85 % 0.0 mm
20:45 14.0 °C 11.2 °C 1005.0 hPa West 3.2 km/h 3.2 km/h 83 % 0.0 mm
20:48 16.4 °C 14.1 °C 1002.9 hPa ESE 3.7 km/h 3.9 km/h 86 % 0.0 mm
20:53 16.4 °C 14.1 °C 1003.9 hPa ENE 7.4 km/h 7.4 km/h 86 % 0.0 mm
20:55 13.8 °C 11.2 °C 1005.0 hPa Calm   3.2 km/h 84 % 0.0 mm
20:58 16.4 °C 14.1 °C 1003.9 hPa North 3.9 km/h 3.9 km/h 86 % 0.0 mm
21:03 16.5 °C 14.2 °C 1003.9 hPa North 9.3 km/h 9.3 km/h 86 % 0.0 mm
21:05 13.7 °C 11.1 °C 1005.0 hPa Calm   3.2 km/h 84 % 0.0 mm
21:08 16.5 °C 14.3 °C 1003.9 hPa ENE 9.3 km/h 9.3 km/h 87 % 0.0 mm
21:13 16.4 °C 14.2 °C 1003.9 hPa East 7.9 km/h 7.9 km/h 87 % 0.0 mm
21:15 13.6 °C 10.9 °C 1005.0 hPa SW 1.6 km/h 1.6 km/h 84 % 0.0 mm
21:18 16.4 °C 14.2 °C 1003.9 hPa ESE 12.6 km/h 12.6 km/h 87 % 0.0 mm
21:23 16.3 °C 14.1 °C 1003.9 hPa East 7.4 km/h 7.4 km/h 87 % 0.0 mm
21:25 13.4 °C 10.9 °C 1005.0 hPa Calm   1.6 km/h 85 % 0.0 mm
21:28 16.3 °C 14.3 °C 1003.9 hPa ENE 7.4 km/h 7.4 km/h 88 % 0.0 mm
21:33 16.3 °C 14.3 °C 1003.9 hPa East 3.7 km/h 3.7 km/h 88 % 0.0 mm
21:35 13.2 °C 10.6 °C 1005.0 hPa SW 1.6 km/h 4.8 km/h 84 % 0.0 mm
21:38 16.2 °C 14.2 °C 1003.9 hPa ESE 7.6 km/h 7.6 km/h 88 % 0.0 mm
21:43 16.1 °C 13.9 °C 1003.9 hPa ENE 11.1 km/h 11.1 km/h 87 % 0.0 mm
21:45 13.1 °C 10.4 °C 1005.0 hPa Calm   3.2 km/h 84 % 0.0 mm
21:48 16.0 °C 13.7 °C 1003.9 hPa NE 7.4 km/h 7.4 km/h 86 % 0.0 mm
21:53 16.0 °C 13.7 °C 1003.9 hPa ENE 7.4 km/h 7.4 km/h 86 % 0.0 mm
21:54 16.0 °C 13.7 °C 1003.9 hPa ENE 7.4 km/h 7.4 km/h 86 % 0.0 mm
21:55 13.4 °C 10.4 °C 1005.0 hPa WSW 3.2 km/h 6.4 km/h 82 % 0.0 mm
21:59 15.9 °C 13.6 °C 1003.9 hPa NNE 7.4 km/h 7.4 km/h 86 % 0.0 mm
22:04 15.9 °C 13.6 °C 1003.9 hPa ENE 5.6 km/h 5.6 km/h 86 % 0.0 mm
22:05 13.6 °C 10.2 °C 1005.0 hPa West 1.6 km/h 4.8 km/h 80 % 0.0 mm
22:09 15.8 °C 13.3 °C 1005.0 hPa East 4.7 km/h 4.7 km/h 85 % 0.0 mm
22:14 15.9 °C 13.4 °C 1005.0 hPa East 5.6 km/h 5.6 km/h 85 % 0.0 mm
22:15 13.6 °C 10.0 °C 1005.0 hPa West 1.6 km/h 4.8 km/h 79 % 0.0 mm
22:19 15.8 °C 13.1 °C 1005.0 hPa NE 5.6 km/h 5.6 km/h 84 % 0.0 mm
22:24 15.8 °C 13.1 °C 1005.0 hPa ENE 3.7 km/h 3.7 km/h 84 % 0.0 mm
22:25 13.6 °C 9.7 °C 1005.0 hPa Calm   1.6 km/h 77 % 0.0 mm
22:29 15.8 °C 13.1 °C 1005.0 hPa ENE 5.6 km/h 5.6 km/h 84 % 0.0 mm
22:34 15.8 °C 13.1 °C 1005.0 hPa ENE 5.3 km/h 5.3 km/h 84 % 0.0 mm
22:35 13.8 °C 9.7 °C 1005.0 hPa West 3.2 km/h 3.2 km/h 76 % 0.0 mm
22:39 15.7 °C 13.0 °C 1005.0 hPa NNE 5.0 km/h 5.0 km/h 84 % 0.0 mm
22:44 15.7 °C 13.0 °C 1005.0 hPa NE 7.4 km/h 7.4 km/h 84 % 0.0 mm
22:45 13.6 °C 9.4 °C 1005.0 hPa Calm   3.2 km/h 76 % 0.0 mm
22:49 15.5 °C 12.6 °C 1005.0 hPa ENE 5.6 km/h 5.6 km/h 83 % 0.0 mm
22:54 15.5 °C 12.4 °C 1005.0 hPa NNE 7.4 km/h 7.4 km/h 82 % 0.0 mm
22:55 13.3 °C 8.9 °C 1005.0 hPa Calm     75 % 0.0 mm
22:59 15.5 °C 12.4 °C 1005.0 hPa Calm     82 % 0.0 mm
23:04 15.5 °C 12.4 °C 1005.0 hPa ENE 3.7 km/h 3.7 km/h 82 % 0.0 mm
23:05 13.2 °C 8.9 °C 1005.0 hPa WSW 1.6 km/h 4.8 km/h 75 % 0.0 mm
23:09 15.4 °C 12.3 °C 1005.0 hPa ESE 7.4 km/h 7.4 km/h 82 % 0.0 mm
23:14 15.4 °C 12.3 °C 1005.0 hPa ESE 7.4 km/h 7.4 km/h 82 % 0.0 mm
23:15 13.1 °C 8.9 °C 1005.0 hPa WSW 1.6 km/h 3.2 km/h 76 % 0.0 mm
23:19 15.4 °C 12.3 °C 1005.0 hPa SSE 1.9 km/h   82 % 0.0 mm
23:24 15.3 °C 12.2 °C 1005.0 hPa East 4.7 km/h 4.7 km/h 82 % 0.0 mm
23:25 12.7 °C 8.6 °C 1005.0 hPa Calm   3.2 km/h 76 % 0.0 mm
23:29 15.2 °C 12.2 °C 1005.0 hPa ESE 5.6 km/h 5.6 km/h 82 % 0.0 mm
23:34 15.1 °C 12.1 °C 1005.0 hPa NNW 5.6 km/h 5.6 km/h 82 % 0.0 mm
23:35 12.7 °C 8.4 °C 1005.0 hPa WSW 3.2 km/h 4.8 km/h 75 % 0.0 mm
23:39 15.1 °C 12.1 °C 1005.0 hPa WNW 3.5 km/h   82 % 0.0 mm
23:44 15.0 °C 12.1 °C 1005.0 hPa ENE 3.7 km/h 3.7 km/h 83 % 0.0 mm
23:45 12.7 °C 8.4 °C 1005.0 hPa WSW 1.6 km/h 3.2 km/h 75 % 0.0 mm
23:49 14.9 °C 11.8 °C 1005.0 hPa NE 7.4 km/h 7.4 km/h 82 % 0.0 mm
23:54 14.8 °C 11.8 °C 1005.0 hPa NNW 1.9 km/h   82 % 0.0 mm
23:55 12.5 °C 8.2 °C 1005.0 hPa WSW 1.6 km/h 3.2 km/h 75 % 0.0 mm
23:59 14.7 °C 11.8 °C 1005.0 hPa NE 3.7 km/h 3.7 km/h 83 % 0.0 mm
Meteo Sesrovires
Elogis d' Weather Underground - 3.75 mb

Guio original per  Jim McMurry - jmcmurry@mwt.net Adaptat per a la plantilla per  Wim van der Kuil - Leuven-Template.eu

Trobareu la nostra informacio del temps tambe a:

Weather Underground

AWEKAS